createdAt,value
2018-03-04T00:00:58.032Z,107.60
2018-03-04T00:01:58.018Z,108.70
2018-03-04T00:02:58.020Z,107.30
2018-03-04T00:03:58.121Z,111.30
2018-03-04T00:04:58.027Z,108.50
2018-03-04T00:05:58.003Z,104.80
2018-03-04T00:06:58.033Z,106.20
2018-03-04T00:07:58.014Z,113.30
2018-03-04T00:08:58.018Z,105.90
2018-03-04T00:09:58.020Z,108.90
2018-03-04T00:10:57.989Z,108.80
2018-03-04T00:11:57.968Z,112.80
2018-03-04T00:12:57.959Z,113.40
2018-03-04T00:13:57.996Z,105.20
2018-03-04T00:14:57.958Z,106.20
2018-03-04T00:15:57.975Z,110.20
2018-03-04T00:16:57.949Z,113.50
2018-03-04T00:17:57.946Z,107.10
2018-03-04T00:18:57.948Z,106.40
2018-03-04T00:19:57.946Z,111.80
2018-03-04T00:20:57.930Z,110.40
2018-03-04T00:21:57.917Z,110.90
2018-03-04T00:22:57.914Z,109.90
2018-03-04T00:23:57.940Z,113.40
2018-03-04T00:24:57.905Z,107.30
2018-03-04T00:25:57.931Z,107.20
2018-03-04T00:26:57.944Z,112.50
2018-03-04T00:27:57.918Z,103.70
2018-03-04T00:28:57.896Z,113.90
2018-03-04T00:29:57.890Z,108.90
2018-03-04T00:30:57.878Z,111.40
2018-03-04T00:31:57.878Z,107.10
2018-03-04T00:32:57.886Z,109.70
2018-03-04T00:33:57.867Z,107.50
2018-03-04T00:34:57.918Z,107.90
2018-03-04T00:35:57.862Z,108.50
2018-03-04T00:36:58.796Z,117.60
2018-03-04T00:37:57.892Z,109.50
2018-03-04T00:38:57.849Z,112.30
2018-03-04T00:39:57.870Z,112.50
2018-03-04T00:40:57.873Z,111.00
2018-03-04T00:41:57.857Z,113.70
2018-03-04T00:42:57.857Z,110.00
2018-03-04T00:43:57.838Z,110.30
2018-03-04T00:44:57.823Z,111.60
2018-03-04T00:45:57.808Z,107.40
2018-03-04T00:46:57.800Z,113.80
2018-03-04T00:47:57.807Z,111.00
2018-03-04T00:48:57.793Z,113.40
2018-03-04T00:49:58.296Z,116.00
2018-03-04T00:50:57.805Z,112.50
2018-03-04T00:51:57.778Z,116.00
2018-03-04T00:52:57.777Z,113.30
2018-03-04T00:53:57.799Z,111.30
2018-03-04T00:54:57.771Z,123.10
2018-03-04T00:55:57.801Z,111.50
2018-03-04T00:56:57.812Z,116.60
2018-03-04T00:57:57.744Z,117.50
2018-03-04T00:58:57.753Z,112.90
2018-03-04T00:59:57.745Z,110.70
2018-03-04T01:00:57.738Z,113.70
2018-03-04T01:01:57.754Z,111.80
2018-03-04T01:02:57.734Z,112.60
2018-03-04T01:03:57.729Z,111.70
2018-03-04T01:04:57.770Z,118.70
2018-03-04T01:05:57.710Z,115.40
2018-03-04T01:06:57.704Z,112.90
2018-03-04T01:07:57.770Z,112.70
2018-03-04T01:08:57.707Z,118.20
2018-03-04T01:09:57.691Z,111.20
2018-03-04T01:10:57.690Z,117.70
2018-03-04T01:11:57.687Z,113.30
2018-03-04T01:12:57.677Z,111.70
2018-03-04T01:13:57.721Z,110.20
2018-03-04T01:14:57.670Z,109.90
2018-03-04T01:15:57.722Z,115.70
2018-03-04T01:16:57.661Z,113.40
2018-03-04T01:17:57.678Z,116.70
2018-03-04T01:18:57.652Z,116.50
2018-03-04T01:19:57.651Z,111.40
2018-03-04T01:20:57.641Z,114.10
2018-03-04T01:21:57.678Z,117.20
2018-03-04T01:22:57.634Z,115.30
2018-03-04T01:23:57.671Z,114.10
2018-03-04T01:24:57.620Z,114.10
2018-03-04T01:25:57.698Z,115.20
2018-03-04T01:26:57.651Z,116.80
2018-03-04T01:27:57.635Z,115.30
2018-03-04T01:28:57.605Z,112.90
2018-03-04T01:29:57.622Z,118.20
2018-03-04T01:30:57.604Z,114.30
2018-03-04T01:31:57.595Z,112.10
2018-03-04T01:32:57.586Z,111.60
2018-03-04T01:33:57.669Z,117.70
2018-03-04T01:34:57.597Z,121.20
2018-03-04T01:35:57.611Z,116.90
2018-03-04T01:36:57.585Z,116.20
2018-03-04T01:37:57.572Z,115.20
2018-03-04T01:38:57.553Z,113.90
2018-03-04T01:39:57.550Z,112.90
2018-03-04T01:40:57.571Z,114.20
2018-03-04T01:41:57.541Z,116.00
2018-03-04T01:42:57.536Z,120.40
2018-03-04T01:43:57.674Z,113.30
2018-03-04T01:44:57.537Z,111.50
2018-03-04T01:45:57.525Z,116.50
2018-03-04T01:46:57.522Z,117.20
2018-03-04T01:47:57.535Z,119.10
2018-03-04T01:48:57.548Z,112.00
2018-03-04T01:49:57.525Z,116.30
2018-03-04T01:50:57.512Z,119.30
2018-03-04T01:51:57.509Z,118.00
2018-03-04T01:52:57.487Z,115.70
2018-03-04T01:53:57.513Z,117.50
2018-03-04T01:54:57.481Z,118.00
2018-03-04T01:55:57.480Z,118.70
2018-03-04T01:56:57.581Z,116.20
2018-03-04T01:57:57.498Z,117.10
2018-03-04T01:58:57.461Z,118.70
2018-03-04T01:59:57.478Z,114.10
2018-03-04T02:00:57.466Z,113.30
2018-03-04T02:01:57.465Z,117.30
2018-03-04T02:02:57.450Z,119.90
2018-03-04T02:03:57.443Z,116.40
2018-03-04T02:04:57.426Z,114.70
2018-03-04T02:05:57.449Z,119.20
2018-03-04T02:06:57.420Z,119.50
2018-03-04T02:07:57.412Z,119.60
2018-03-04T02:08:57.414Z,122.40
2018-03-04T02:09:58.296Z,115.70
2018-03-04T02:10:57.403Z,122.60
2018-03-04T02:11:57.407Z,118.00
2018-03-04T02:12:57.388Z,118.30
2018-03-04T02:13:57.385Z,123.70
2018-03-04T02:14:57.403Z,117.30
2018-03-04T02:15:57.397Z,129.90
2018-03-04T02:16:57.376Z,117.10
2018-03-04T02:17:57.370Z,115.40
2018-03-04T02:18:57.360Z,122.90
2018-03-04T02:19:57.359Z,119.20
2018-03-04T02:20:57.362Z,117.80
2018-03-04T02:21:57.382Z,120.30
2018-03-04T02:22:57.340Z,118.80
2018-03-04T02:23:57.342Z,117.10
2018-03-04T02:24:57.347Z,122.40
2018-03-04T02:25:57.327Z,120.50
2018-03-04T02:26:57.367Z,119.40
2018-03-04T02:27:57.334Z,120.70
2018-03-04T02:28:57.334Z,118.30
2018-03-04T02:29:57.310Z,122.50
2018-03-04T02:30:57.303Z,119.80
2018-03-04T02:31:57.302Z,122.30
2018-03-04T02:32:57.313Z,123.00
2018-03-04T02:33:57.327Z,120.20
2018-03-04T02:34:57.328Z,128.50
2018-03-04T02:35:57.286Z,122.10
2018-03-04T02:36:57.316Z,126.60
2018-03-04T02:37:57.273Z,118.40
2018-03-04T02:38:57.272Z,124.20
2018-03-04T02:39:57.270Z,126.50
2018-03-04T02:40:57.269Z,121.70
2018-03-04T02:41:57.255Z,123.80
2018-03-04T02:42:57.279Z,113.70
2018-03-04T02:43:57.256Z,118.10
2018-03-04T02:44:57.258Z,124.30
2018-03-04T02:45:57.228Z,124.50
2018-03-04T02:46:57.231Z,125.90
2018-03-04T02:47:57.229Z,121.40
2018-03-04T02:48:57.230Z,119.30
2018-03-04T02:49:57.214Z,126.30
2018-03-04T02:50:57.223Z,120.20
2018-03-04T02:51:57.235Z,123.20
2018-03-04T02:52:57.220Z,120.60
2018-03-04T02:53:57.221Z,119.40
2018-03-04T02:54:57.196Z,123.30
2018-03-04T02:55:57.209Z,122.90
2018-03-04T02:56:57.187Z,126.20
2018-03-04T02:57:57.203Z,121.50
2018-03-04T02:58:57.170Z,117.80
2018-03-04T02:59:57.192Z,117.40
2018-03-04T03:00:57.195Z,118.90
2018-03-04T03:01:57.163Z,123.50
2018-03-04T03:02:57.802Z,120.20
2018-03-04T03:03:57.157Z,127.00
2018-03-04T03:04:57.186Z,117.30
2018-03-04T03:05:57.149Z,126.00
2018-03-04T03:06:57.150Z,121.70
2018-03-04T03:07:57.143Z,121.00
2018-03-04T03:08:57.162Z,124.70
2018-03-04T03:09:57.126Z,125.70
2018-03-04T03:10:57.174Z,117.60
2018-03-04T03:11:57.113Z,118.00
2018-03-04T03:12:57.189Z,122.20
2018-03-04T03:13:57.104Z,123.20
2018-03-04T03:14:57.100Z,123.00
2018-03-04T03:15:57.115Z,123.70
2018-03-04T03:16:57.261Z,123.80
2018-03-04T03:17:57.803Z,117.10
2018-03-04T03:18:57.084Z,123.10
2018-03-04T03:19:57.087Z,121.70
2018-03-04T03:20:57.074Z,121.90
2018-03-04T03:21:57.113Z,120.80
2018-03-04T03:22:57.064Z,121.20
2018-03-04T03:23:57.059Z,120.10
2018-03-04T03:24:57.074Z,122.00
2018-03-04T03:25:57.055Z,117.40
2018-03-04T03:26:57.055Z,117.80
2018-03-04T03:27:57.069Z,124.90
2018-03-04T03:28:57.048Z,119.70
2018-03-04T03:29:57.131Z,125.90
2018-03-04T03:30:57.054Z,128.20
2018-03-04T03:31:57.020Z,119.90
2018-03-04T03:32:57.024Z,125.30
2018-03-04T03:33:57.048Z,118.60
2018-03-04T03:34:57.030Z,117.50
2018-03-04T03:35:57.000Z,119.70
2018-03-04T03:36:57.003Z,119.30
2018-03-04T03:37:56.996Z,118.00
2018-03-04T03:38:56.994Z,115.60
2018-03-04T03:39:56.991Z,122.10
2018-03-04T03:40:57.035Z,119.50
2018-03-04T03:41:57.015Z,118.20
2018-03-04T03:42:56.978Z,124.40
2018-03-04T03:43:56.998Z,118.30
2018-03-04T03:44:56.960Z,121.30
2018-03-04T03:45:56.962Z,118.60
2018-03-04T03:46:56.955Z,123.80
2018-03-04T03:47:56.958Z,122.60
2018-03-04T03:48:56.959Z,122.70
2018-03-04T03:49:56.982Z,117.70
2018-03-04T03:50:56.948Z,119.60
2018-03-04T03:51:56.941Z,118.10
2018-03-04T03:52:56.973Z,125.40
2018-03-04T03:53:56.950Z,122.80
2018-03-04T03:54:56.971Z,121.80
2018-03-04T03:55:56.940Z,124.40
2018-03-04T03:56:56.954Z,123.30
2018-03-04T03:57:57.804Z,121.10
2018-03-04T03:58:56.904Z,117.20
2018-03-04T03:59:56.940Z,123.20
2018-03-04T04:00:56.904Z,125.70
2018-03-04T04:01:56.893Z,119.20
2018-03-04T04:02:56.889Z,117.90
2018-03-04T04:03:56.922Z,119.70
2018-03-04T04:04:56.883Z,120.00
2018-03-04T04:05:56.870Z,115.90
2018-03-04T04:06:56.901Z,125.60
2018-03-04T04:07:56.866Z,120.40
2018-03-04T04:08:56.864Z,126.20
2018-03-04T04:09:56.862Z,121.70
2018-03-04T04:10:56.941Z,118.70
2018-03-04T04:11:56.867Z,119.70
2018-03-04T04:12:56.857Z,121.20
2018-03-04T04:13:56.843Z,122.80
2018-03-04T04:14:56.830Z,127.20
2018-03-04T04:15:56.861Z,119.00
2018-03-04T04:16:56.821Z,128.00
2018-03-04T04:17:56.835Z,123.40
2018-03-04T04:18:56.852Z,125.40
2018-03-04T04:19:56.810Z,128.20
2018-03-04T04:20:56.845Z,118.80
2018-03-04T04:21:56.808Z,120.20
2018-03-04T04:22:56.812Z,126.90
2018-03-04T04:23:57.807Z,124.70
2018-03-04T04:24:56.803Z,124.80
2018-03-04T04:25:56.786Z,125.40
2018-03-04T04:26:56.787Z,121.30
2018-03-04T04:27:56.811Z,120.20
2018-03-04T04:28:56.795Z,121.50
2018-03-04T04:29:56.778Z,128.60
2018-03-04T04:30:56.765Z,128.60
2018-03-04T04:31:56.757Z,123.90
2018-03-04T04:32:56.754Z,125.70
2018-03-04T04:33:56.753Z,124.50
2018-03-04T04:34:56.748Z,124.10
2018-03-04T04:35:56.791Z,120.30
2018-03-04T04:36:56.797Z,132.50
2018-03-04T04:37:56.785Z,126.10
2018-03-04T04:38:56.789Z,124.00
2018-03-04T04:39:56.733Z,124.90
2018-03-04T04:40:56.824Z,125.90
2018-03-04T04:41:56.752Z,121.40
2018-03-04T04:42:56.727Z,130.00
2018-03-04T04:43:56.709Z,128.10
2018-03-04T04:44:56.706Z,122.50
2018-03-04T04:45:56.721Z,127.20
2018-03-04T04:46:56.801Z,128.20
2018-03-04T04:47:56.732Z,125.30
2018-03-04T04:48:56.697Z,124.40
2018-03-04T04:49:56.704Z,126.10
2018-03-04T04:50:56.738Z,122.30
2018-03-04T04:51:56.746Z,125.60
2018-03-04T04:52:56.672Z,130.10
2018-03-04T04:53:56.713Z,127.60
2018-03-04T04:54:56.706Z,126.10
2018-03-04T04:55:56.676Z,123.90
2018-03-04T04:56:56.655Z,128.30
2018-03-04T04:57:56.654Z,125.60
2018-03-04T04:58:56.657Z,125.20
2018-03-04T04:59:56.644Z,125.90
2018-03-04T05:00:56.647Z,126.80
2018-03-04T05:01:56.677Z,123.70
2018-03-04T05:02:56.630Z,126.30
2018-03-04T05:03:56.629Z,123.30
2018-03-04T05:04:56.641Z,126.30
2018-03-04T05:05:56.618Z,130.40
2018-03-04T05:06:56.627Z,131.40
2018-03-04T05:07:56.614Z,129.50
2018-03-04T05:08:56.597Z,126.20
2018-03-04T05:09:56.604Z,127.60
2018-03-04T05:10:56.637Z,128.00
2018-03-04T05:11:56.586Z,127.00
2018-03-04T05:12:56.593Z,129.30
2018-03-04T05:13:56.598Z,127.80
2018-03-04T05:14:56.575Z,127.90
2018-03-04T05:15:56.573Z,127.30
2018-03-04T05:16:57.308Z,120.10
2018-03-04T05:17:56.567Z,127.20
2018-03-04T05:18:56.617Z,123.40
2018-03-04T05:19:56.583Z,126.10
2018-03-04T05:20:56.547Z,130.90
2018-03-04T05:21:56.675Z,128.90
2018-03-04T05:22:56.579Z,120.80
2018-03-04T05:23:56.553Z,129.00
2018-03-04T05:24:56.594Z,125.80
2018-03-04T05:25:56.543Z,128.20
2018-03-04T05:26:56.529Z,129.80
2018-03-04T05:27:56.526Z,126.90
2018-03-04T05:28:56.533Z,127.50
2018-03-04T05:29:56.514Z,121.50
2018-03-04T05:30:56.518Z,127.80
2018-03-04T05:31:56.525Z,131.80
2018-03-04T05:32:56.506Z,130.70
2018-03-04T05:33:56.510Z,129.60
2018-03-04T05:34:56.497Z,128.70
2018-03-04T05:35:56.496Z,132.20
2018-03-04T05:36:56.488Z,126.30
2018-03-04T05:37:56.543Z,127.20
2018-03-04T05:38:56.552Z,127.70
2018-03-04T05:39:56.468Z,127.50
2018-03-04T05:40:56.483Z,131.50
2018-03-04T05:41:56.493Z,131.20
2018-03-04T05:42:56.496Z,125.20
2018-03-04T05:43:56.515Z,129.00
2018-03-04T05:44:57.318Z,130.40
2018-03-04T05:45:56.452Z,131.50
2018-03-04T05:46:56.451Z,136.10
2018-03-04T05:47:56.449Z,124.70
2018-03-04T05:48:56.425Z,127.90
2018-03-04T05:49:56.429Z,127.10
2018-03-04T05:50:56.470Z,125.60
2018-03-04T05:51:56.427Z,122.10
2018-03-04T05:52:56.416Z,130.80
2018-03-04T05:53:57.314Z,128.10
2018-03-04T05:54:56.407Z,122.40
2018-03-04T05:55:56.438Z,126.80
2018-03-04T05:56:56.399Z,127.10
2018-03-04T05:57:56.393Z,126.00
2018-03-04T05:58:56.431Z,126.60
2018-03-04T05:59:56.412Z,126.90
2018-03-04T06:00:57.315Z,125.60
2018-03-04T06:01:56.377Z,126.60
2018-03-04T06:02:56.414Z,130.70
2018-03-04T06:03:56.387Z,124.50
2018-03-04T06:04:56.363Z,124.50
2018-03-04T06:05:56.364Z,123.60
2018-03-04T06:06:56.357Z,130.40
2018-03-04T06:07:56.364Z,126.10
2018-03-04T06:08:56.346Z,127.50
2018-03-04T06:09:56.371Z,128.00
2018-03-04T06:10:56.374Z,134.90
2018-03-04T06:11:56.341Z,134.00
2018-03-04T06:12:56.349Z,132.70
2018-03-04T06:13:56.358Z,132.60
2018-03-04T06:14:56.333Z,131.20
2018-03-04T06:15:56.337Z,132.40
2018-03-04T06:16:56.361Z,131.60
2018-03-04T06:17:56.385Z,126.80
2018-03-04T06:18:56.316Z,131.70
2018-03-04T06:19:56.300Z,126.80
2018-03-04T06:20:56.314Z,130.50
2018-03-04T06:21:56.295Z,131.30
2018-03-04T06:22:56.298Z,122.10
2018-03-04T06:23:56.303Z,124.40
2018-03-04T06:24:56.278Z,127.70
2018-03-04T06:25:56.289Z,127.80
2018-03-04T06:26:56.267Z,124.20
2018-03-04T06:27:56.286Z,128.90
2018-03-04T06:28:56.284Z,125.60
2018-03-04T06:29:56.271Z,126.10
2018-03-04T06:30:56.286Z,125.80
2018-03-04T06:31:56.244Z,130.20
2018-03-04T06:32:56.244Z,128.00
2018-03-04T06:33:56.234Z,123.60
2018-03-04T06:34:56.231Z,128.00
2018-03-04T06:35:56.279Z,123.50
2018-03-04T06:36:56.229Z,121.50
2018-03-04T06:37:56.240Z,126.70
2018-03-04T06:38:56.218Z,122.80
2018-03-04T06:39:56.293Z,128.30
2018-03-04T06:40:56.238Z,123.00
2018-03-04T06:41:56.202Z,121.80
2018-03-04T06:42:56.244Z,126.70
2018-03-04T06:43:56.194Z,125.20
2018-03-04T06:44:56.212Z,126.30
2018-03-04T06:45:56.212Z,123.30
2018-03-04T06:46:56.230Z,126.50
2018-03-04T06:47:56.338Z,123.70
2018-03-04T06:48:56.219Z,130.00
2018-03-04T06:49:56.247Z,118.10
2018-03-04T06:50:56.307Z,126.90
2018-03-04T06:51:56.166Z,121.80
2018-03-04T06:52:56.169Z,119.30
2018-03-04T06:53:56.155Z,125.10
2018-03-04T06:54:56.159Z,127.20
2018-03-04T06:55:56.150Z,117.40
2018-03-04T06:56:56.142Z,120.90
2018-03-04T06:57:56.216Z,121.10
2018-03-04T06:58:56.146Z,122.10
2018-03-04T06:59:56.173Z,120.80
2018-03-04T07:00:56.169Z,119.80
2018-03-04T07:01:56.177Z,127.40
2018-03-04T07:02:56.118Z,122.20
2018-03-04T07:03:56.820Z,123.30
2018-03-04T07:04:56.137Z,123.60
2018-03-04T07:05:56.122Z,117.90
2018-03-04T07:06:56.107Z,121.20
2018-03-04T07:07:56.147Z,124.80
2018-03-04T07:08:56.217Z,124.80
2018-03-04T07:09:56.107Z,121.30
2018-03-04T07:10:56.095Z,124.20
2018-03-04T07:11:56.087Z,120.70
2018-03-04T07:12:56.077Z,124.20
2018-03-04T07:13:56.078Z,117.90
2018-03-04T07:14:56.092Z,126.80
2018-03-04T07:15:56.064Z,121.60
2018-03-04T07:16:56.080Z,123.10
2018-03-04T07:17:56.069Z,122.20
2018-03-04T07:18:56.054Z,121.90
2018-03-04T07:19:56.097Z,123.90
2018-03-04T07:20:56.046Z,121.30
2018-03-04T07:21:56.051Z,122.30
2018-03-04T07:22:56.051Z,122.90
2018-03-04T07:23:56.047Z,119.90
2018-03-04T07:24:56.132Z,116.00
2018-03-04T07:25:56.036Z,122.10
2018-03-04T07:26:56.074Z,127.60
2018-03-04T07:27:56.032Z,127.00
2018-03-04T07:28:56.026Z,123.20
2018-03-04T07:29:56.019Z,120.10
2018-03-04T07:30:56.010Z,124.30
2018-03-04T07:31:56.020Z,118.70
2018-03-04T07:32:56.001Z,120.20
2018-03-04T07:33:56.000Z,123.00
2018-03-04T07:34:56.000Z,123.50
2018-03-04T07:35:56.002Z,119.70
2018-03-04T07:36:56.012Z,124.10
2018-03-04T07:37:55.987Z,123.50
2018-03-04T07:38:56.017Z,126.00
2018-03-04T07:39:56.037Z,124.30
2018-03-04T07:40:55.990Z,119.10
2018-03-04T07:41:55.975Z,116.10
2018-03-04T07:42:55.972Z,120.80
2018-03-04T07:43:56.008Z,120.90
2018-03-04T07:44:55.971Z,125.60
2018-03-04T07:45:55.964Z,127.30
2018-03-04T07:46:56.005Z,122.80
2018-03-04T07:47:55.957Z,119.50
2018-03-04T07:48:55.933Z,123.00
2018-03-04T07:49:56.002Z,125.60
2018-03-04T07:50:55.963Z,120.50
2018-03-04T07:51:55.948Z,116.00
2018-03-04T07:52:55.933Z,122.70
2018-03-04T07:53:55.929Z,120.30
2018-03-04T07:54:55.920Z,121.20
2018-03-04T07:55:55.940Z,124.60
2018-03-04T07:56:55.915Z,114.90
2018-03-04T07:57:55.909Z,121.80
2018-03-04T07:58:55.915Z,121.30
2018-03-04T07:59:55.904Z,129.30
2018-03-04T08:00:55.925Z,119.10
2018-03-04T08:01:55.892Z,122.60
2018-03-04T08:02:55.898Z,120.30
2018-03-04T08:03:55.930Z,116.20
2018-03-04T08:04:55.894Z,118.70
2018-03-04T08:05:55.900Z,119.90
2018-03-04T08:06:55.966Z,119.20
2018-03-04T08:07:55.884Z,123.30
2018-03-04T08:08:55.922Z,118.90
2018-03-04T08:09:55.871Z,120.70
2018-03-04T08:10:55.863Z,116.70
2018-03-04T08:11:55.860Z,124.10
2018-03-04T08:12:55.871Z,124.70
2018-03-04T08:13:55.853Z,127.10
2018-03-04T08:14:55.879Z,120.00
2018-03-04T08:15:55.907Z,117.80
2018-03-04T08:16:55.853Z,122.80
2018-03-04T08:17:55.882Z,116.90
2018-03-04T08:18:55.869Z,118.30
2018-03-04T08:19:55.863Z,124.20
2018-03-04T08:20:55.882Z,118.80
2018-03-04T08:21:55.869Z,117.70
2018-03-04T08:22:55.836Z,119.10
2018-03-04T08:23:55.844Z,116.00
2018-03-04T08:24:55.857Z,118.30
2018-03-04T08:25:55.858Z,116.80
2018-03-04T08:26:55.818Z,118.80
2018-03-04T08:27:55.815Z,121.50
2018-03-04T08:28:55.820Z,119.60
2018-03-04T08:29:55.823Z,122.20
2018-03-04T08:30:55.799Z,117.60
2018-03-04T08:31:55.796Z,123.70
2018-03-04T08:32:55.793Z,120.90
2018-03-04T08:33:55.837Z,113.70
2018-03-04T08:34:55.790Z,113.20
2018-03-04T08:35:55.787Z,117.60
2018-03-04T08:36:55.782Z,116.40
2018-03-04T08:37:55.778Z,112.40
2018-03-04T08:38:55.769Z,112.20
2018-03-04T08:39:55.777Z,113.70
2018-03-04T08:40:55.776Z,117.60
2018-03-04T08:41:55.798Z,116.90
2018-03-04T08:42:55.826Z,114.40
2018-03-04T08:43:55.763Z,114.40
2018-03-04T08:44:55.789Z,113.70
2018-03-04T08:45:55.795Z,110.30
2018-03-04T08:46:55.771Z,113.10
2018-03-04T08:47:56.337Z,108.80
2018-03-04T08:48:55.808Z,114.50
2018-03-04T08:49:55.732Z,111.70
2018-03-04T08:50:55.787Z,112.50
2018-03-04T08:51:55.726Z,112.50
2018-03-04T08:52:55.770Z,114.50
2018-03-04T08:53:55.740Z,115.70
2018-03-04T08:54:55.724Z,111.70
2018-03-04T08:55:55.716Z,123.60
2018-03-04T08:56:55.737Z,111.40
2018-03-04T08:57:55.753Z,114.50
2018-03-04T08:58:55.712Z,111.90
2018-03-04T08:59:55.710Z,109.80
2018-03-04T09:00:55.699Z,116.50
2018-03-04T09:01:55.703Z,110.40
2018-03-04T09:02:55.693Z,112.90
2018-03-04T09:03:55.734Z,105.60
2018-03-04T09:04:55.705Z,113.40
2018-03-04T09:05:55.686Z,116.70
2018-03-04T09:06:55.684Z,114.80
2018-03-04T09:07:55.707Z,110.40
2018-03-04T09:08:55.683Z,106.50
2018-03-04T09:09:55.706Z,109.90
2018-03-04T09:10:55.690Z,111.60
2018-03-04T09:11:55.668Z,111.90
2018-03-04T09:12:55.684Z,113.40
2018-03-04T09:13:55.686Z,105.40
2018-03-04T09:14:55.671Z,110.20
2018-03-04T09:15:55.652Z,110.40
2018-03-04T09:16:55.654Z,112.60
2018-03-04T09:17:55.655Z,102.30
2018-03-04T09:18:55.665Z,113.00
2018-03-04T09:19:55.650Z,107.50
2018-03-04T09:20:55.642Z,107.80
2018-03-04T09:21:55.686Z,105.10
2018-03-04T09:22:55.644Z,111.60
2018-03-04T09:23:55.634Z,107.20
2018-03-04T09:24:55.665Z,109.10
2018-03-04T09:25:55.637Z,109.80
2018-03-04T09:26:55.642Z,111.20
2018-03-04T09:27:55.650Z,106.20
2018-03-04T09:28:55.650Z,110.30
2018-03-04T09:29:55.639Z,108.00
2018-03-04T09:30:55.638Z,109.70
2018-03-04T09:31:55.677Z,107.60
2018-03-04T09:32:55.623Z,110.40
2018-03-04T09:33:55.632Z,109.90
2018-03-04T09:34:55.617Z,110.40
2018-03-04T09:35:55.637Z,106.60
2018-03-04T09:36:55.593Z,105.70
2018-03-04T09:37:55.606Z,111.50
2018-03-04T09:38:56.337Z,103.50
2018-03-04T09:39:55.605Z,110.00
2018-03-04T09:40:55.627Z,106.40
2018-03-04T09:41:55.591Z,109.00
2018-03-04T09:42:55.631Z,102.40
2018-03-04T09:43:55.584Z,108.60
2018-03-04T09:44:55.581Z,102.90
2018-03-04T09:45:55.610Z,106.30
2018-03-04T09:46:55.601Z,99.60
2018-03-04T09:47:55.575Z,103.00
2018-03-04T09:48:55.572Z,103.50
2018-03-04T09:49:55.571Z,106.00
2018-03-04T09:50:55.587Z,105.90
2018-03-04T09:51:55.574Z,105.40
2018-03-04T09:52:55.553Z,104.50
2018-03-04T09:53:55.614Z,103.70
2018-03-04T09:54:55.698Z,103.70
2018-03-04T09:55:55.550Z,102.80
2018-03-04T09:56:55.556Z,102.70
2018-03-04T09:57:55.544Z,101.80
2018-03-04T09:58:55.554Z,99.60
2018-03-04T09:59:55.540Z,97.80
2018-03-04T10:00:55.578Z,102.50
2018-03-04T10:01:55.540Z,107.00
2018-03-04T10:02:55.586Z,102.70
2018-03-04T10:03:55.543Z,102.80
2018-03-04T10:04:55.656Z,101.80
2018-03-04T10:05:55.540Z,99.80
2018-03-04T10:06:55.545Z,101.20
2018-03-04T10:07:55.528Z,109.00
2018-03-04T10:08:55.533Z,98.70
2018-03-04T10:09:55.554Z,100.90
2018-03-04T10:10:55.552Z,99.40
2018-03-04T10:11:55.566Z,96.10
2018-03-04T10:12:55.524Z,99.20
2018-03-04T10:13:55.557Z,100.10
2018-03-04T10:14:55.568Z,100.30
2018-03-04T10:15:55.514Z,98.50
2018-03-04T10:16:55.517Z,98.90
2018-03-04T10:17:55.505Z,97.20
2018-03-04T10:18:55.512Z,97.70
2018-03-04T10:19:55.514Z,99.80
2018-03-04T10:20:55.530Z,100.80
2018-03-04T10:21:55.514Z,98.50
2018-03-04T10:22:55.589Z,98.30
2018-03-04T10:23:55.507Z,95.30
2018-03-04T10:24:55.500Z,96.00
2018-03-04T10:25:55.504Z,95.40
2018-03-04T10:26:55.515Z,98.50
2018-03-04T10:27:55.524Z,94.60
2018-03-04T10:28:55.499Z,94.50
2018-03-04T10:29:55.522Z,91.40
2018-03-04T10:30:55.524Z,91.00
2018-03-04T10:31:55.507Z,96.30
2018-03-04T10:32:55.516Z,90.20
2018-03-04T10:33:55.514Z,88.00
2018-03-04T10:34:55.519Z,93.30
2018-03-04T10:35:55.545Z,93.90
2018-03-04T10:36:55.508Z,92.50
2018-03-04T10:37:55.482Z,90.00
2018-03-04T10:38:55.484Z,94.10
2018-03-04T10:39:55.488Z,89.90
2018-03-04T10:40:55.491Z,87.20
2018-03-04T10:41:55.482Z,83.40
2018-03-04T10:42:55.483Z,81.00
2018-03-04T10:43:55.474Z,77.80
2018-03-04T10:44:55.504Z,79.30
2018-03-04T10:45:55.505Z,77.80
2018-03-04T10:46:55.528Z,72.20
2018-03-04T10:47:55.508Z,71.70
2018-03-04T10:48:56.349Z,72.00
2018-03-04T10:49:55.504Z,72.80
2018-03-04T10:50:55.546Z,71.40
2018-03-04T10:51:55.502Z,71.60
2018-03-04T10:52:55.498Z,71.80
2018-03-04T10:53:55.489Z,74.00
2018-03-04T10:54:55.499Z,70.90
2018-03-04T10:55:55.507Z,73.70
2018-03-04T10:56:55.524Z,70.40
2018-03-04T10:57:55.507Z,69.30
2018-03-04T10:58:56.352Z,67.60
2018-03-04T10:59:55.543Z,68.20
2018-03-04T11:00:55.536Z,69.80
2018-03-04T11:01:55.520Z,67.80
2018-03-04T11:02:55.531Z,69.00
2018-03-04T11:03:55.541Z,68.50
2018-03-04T11:04:55.535Z,70.00
2018-03-04T11:05:55.539Z,68.30
2018-03-04T11:06:55.559Z,68.70
2018-03-04T11:07:55.549Z,68.70
2018-03-04T11:08:55.657Z,71.40
2018-03-04T11:09:55.563Z,70.50
2018-03-04T11:10:55.583Z,71.80
2018-03-04T11:11:55.581Z,70.40
2018-03-04T11:12:55.584Z,67.30
2018-03-04T11:13:55.598Z,67.50
2018-03-04T11:14:55.594Z,69.60
2018-03-04T11:15:55.591Z,69.70
2018-03-04T11:16:55.611Z,67.50
2018-03-04T11:17:55.616Z,69.40
2018-03-04T11:18:55.714Z,67.70
2018-03-04T11:19:55.663Z,68.90
2018-03-04T11:20:55.626Z,69.10
2018-03-04T11:21:55.672Z,69.70
2018-03-04T11:22:55.626Z,69.50
2018-03-04T11:23:55.641Z,70.70
2018-03-04T11:24:55.651Z,66.50
2018-03-04T11:25:55.674Z,67.80
2018-03-04T11:26:55.693Z,67.70
2018-03-04T11:27:55.675Z,68.20
2018-03-04T11:28:55.671Z,68.80
2018-03-04T11:29:55.680Z,66.40
2018-03-04T11:30:55.689Z,64.80
2018-03-04T11:31:55.699Z,68.70
2018-03-04T11:32:55.712Z,66.80
2018-03-04T11:33:55.739Z,66.70
2018-03-04T11:34:55.766Z,68.00
2018-03-04T11:35:55.740Z,65.30
2018-03-04T11:36:55.729Z,67.90
2018-03-04T11:37:55.739Z,65.90
2018-03-04T11:38:55.751Z,66.20
2018-03-04T11:39:55.773Z,63.60
2018-03-04T11:40:55.767Z,68.40
2018-03-04T11:41:55.797Z,66.30
2018-03-04T11:42:55.838Z,64.50
2018-03-04T11:43:55.793Z,64.50
2018-03-04T11:44:55.796Z,63.70
2018-03-04T11:45:55.814Z,63.00
2018-03-04T11:46:55.816Z,63.40
2018-03-04T11:47:55.835Z,65.70
2018-03-04T11:48:55.855Z,66.10
2018-03-04T11:49:55.838Z,65.40
2018-03-04T11:50:55.845Z,63.30
2018-03-04T11:51:55.864Z,64.70
2018-03-04T11:52:55.863Z,66.10
2018-03-04T11:53:56.385Z,65.00
2018-03-04T11:54:55.936Z,63.60
2018-03-04T11:55:55.911Z,63.50
2018-03-04T11:56:55.945Z,65.60
2018-03-04T11:57:55.908Z,66.30
2018-03-04T11:58:55.905Z,65.80
2018-03-04T11:59:55.937Z,65.80
2018-03-04T12:00:55.949Z,65.40
2018-03-04T12:01:55.968Z,64.80
2018-03-04T12:02:55.964Z,64.40
2018-03-04T12:03:56.005Z,63.20
2018-03-04T12:04:55.948Z,65.30
2018-03-04T12:05:55.939Z,62.80
2018-03-04T12:06:55.944Z,59.80
2018-03-04T12:07:55.985Z,61.80
2018-03-04T12:08:55.949Z,63.10
2018-03-04T12:09:56.000Z,62.60
2018-03-04T12:10:55.988Z,58.30
2018-03-04T12:11:55.969Z,56.50
2018-03-04T12:12:55.967Z,59.10
2018-03-04T12:13:55.982Z,59.90
2018-03-04T12:14:56.012Z,60.60
2018-03-04T12:15:55.978Z,63.40
2018-03-04T12:16:55.994Z,66.50
2018-03-04T12:17:55.990Z,62.10
2018-03-04T12:18:55.998Z,60.70
2018-03-04T12:19:56.020Z,63.80
2018-03-04T12:20:56.008Z,62.20
2018-03-04T12:21:55.994Z,65.20
2018-03-04T12:22:56.005Z,62.00
2018-03-04T12:23:56.013Z,57.30
2018-03-04T12:24:56.042Z,58.90
2018-03-04T12:25:56.013Z,63.30
2018-03-04T12:26:56.022Z,62.40
2018-03-04T12:27:56.080Z,62.70
2018-03-04T12:28:56.050Z,61.20
2018-03-04T12:29:56.090Z,57.20
2018-03-04T12:30:56.064Z,59.20
2018-03-04T12:31:56.040Z,59.60
2018-03-04T12:32:56.027Z,58.40
2018-03-04T12:33:56.037Z,59.90